Terminal Aerodrome Forecast
Issued by NWS Melbourne, FL

Home | Current Version | Previous Version | Text Only | Print | Product List | Glossary On
Versions: 1 2 3 4 5 6 7 8 9 10 11 12 13 14 15 16 17 18
000
FTUS42 KMLB 252328
TAFVRB
TAF
KVRB 252328Z 2600/2624 10009KT P6SM VCSH SCT035 SCT250
     FM260300 10007KT P6SM VCSH SCT040
     FM261300 10010KT P6SM VCSH SCT035 SCT060=

USA.gov is the U.S. government's official web portal to all federal, state and local government web resources and services.